sensor_id;sensor_type;location;lat;lon;timestamp;P1;durP1;ratioP1;P2;durP2;ratioP2
12776;SDS011;6452;41.572;23.732;2023-04-23T00:00:22;2.80;;;2.50;;
12776;SDS011;6452;41.572;23.732;2023-04-23T00:02:50;3.00;;;2.80;;
12776;SDS011;6452;41.572;23.732;2023-04-23T00:05:17;2.75;;;2.55;;
12776;SDS011;6452;41.572;23.732;2023-04-23T00:07:44;3.15;;;2.90;;
12776;SDS011;6452;41.572;23.732;2023-04-23T00:10:10;3.05;;;2.72;;
12776;SDS011;6452;41.572;23.732;2023-04-23T00:12:37;3.80;;;2.60;;
12776;SDS011;6452;41.572;23.732;2023-04-23T00:15:04;2.60;;;2.50;;
12776;SDS011;6452;41.572;23.732;2023-04-23T00:17:31;3.00;;;2.80;;
12776;SDS011;6452;41.572;23.732;2023-04-23T00:19:57;2.83;;;2.63;;
12776;SDS011;6452;41.572;23.732;2023-04-23T00:22:23;2.65;;;2.45;;
12776;SDS011;6452;41.572;23.732;2023-04-23T00:24:50;3.25;;;2.95;;
12776;SDS011;6452;41.572;23.732;2023-04-23T00:27:16;2.63;;;2.42;;
12776;SDS011;6452;41.572;23.732;2023-04-23T00:29:42;3.33;;;3.03;;
12776;SDS011;6452;41.572;23.732;2023-04-23T00:32:10;2.88;;;2.67;;
12776;SDS011;6452;41.572;23.732;2023-04-23T00:34:36;2.63;;;2.50;;
12776;SDS011;6452;41.572;23.732;2023-04-23T00:37:02;2.50;;;2.30;;
12776;SDS011;6452;41.572;23.732;2023-04-23T00:39:31;2.17;;;2.08;;
12776;SDS011;6452;41.572;23.732;2023-04-23T00:41:57;2.17;;;2.08;;
12776;SDS011;6452;41.572;23.732;2023-04-23T00:44:26;2.55;;;2.35;;
12776;SDS011;6452;41.572;23.732;2023-04-23T00:46:52;2.42;;;2.33;;
12776;SDS011;6452;41.572;23.732;2023-04-23T00:49:19;2.03;;;1.92;;
12776;SDS011;6452;41.572;23.732;2023-04-23T00:51:46;2.00;;;1.90;;
12776;SDS011;6452;41.572;23.732;2023-04-23T00:54:12;2.20;;;2.10;;
12776;SDS011;6452;41.572;23.732;2023-04-23T00:56:39;2.13;;;2.03;;
12776;SDS011;6452;41.572;23.732;2023-04-23T00:59:05;2.30;;;2.20;;
12776;SDS011;6452;41.572;23.732;2023-04-23T01:01:31;2.20;;;2.00;;
12776;SDS011;6452;41.572;23.732;2023-04-23T01:03:58;2.03;;;1.95;;
12776;SDS011;6452;41.572;23.732;2023-04-23T01:06:24;2.40;;;2.15;;
12776;SDS011;6452;41.572;23.732;2023-04-23T01:08:53;2.30;;;2.20;;
12776;SDS011;6452;41.572;23.732;2023-04-23T01:11:19;2.38;;;2.28;;
12776;SDS011;6452;41.572;23.732;2023-04-23T01:13:45;2.00;;;1.90;;
12776;SDS011;6452;41.572;23.732;2023-04-23T01:16:11;2.20;;;2.08;;
12776;SDS011;6452;41.572;23.732;2023-04-23T01:18:37;2.25;;;2.15;;
12776;SDS011;6452;41.572;23.732;2023-04-23T01:21:05;2.75;;;2.55;;
12776;SDS011;6452;41.572;23.732;2023-04-23T01:23:31;3.25;;;2.95;;
12776;SDS011;6452;41.572;23.732;2023-04-23T01:25:58;3.40;;;3.10;;
12776;SDS011;6452;41.572;23.732;2023-04-23T01:28:24;2.70;;;2.50;;
12776;SDS011;6452;41.572;23.732;2023-04-23T01:30:50;2.55;;;2.45;;
12776;SDS011;6452;41.572;23.732;2023-04-23T01:33:16;4.05;;;3.65;;
12776;SDS011;6452;41.572;23.732;2023-04-23T01:35:43;4.22;;;3.55;;
12776;SDS011;6452;41.572;23.732;2023-04-23T01:38:10;3.17;;;2.97;;
12776;SDS011;6452;41.572;23.732;2023-04-23T01:40:36;4.18;;;3.78;;
12776;SDS011;6452;41.572;23.732;2023-04-23T01:43:03;4.82;;;3.25;;
12776;SDS011;6452;41.572;23.732;2023-04-23T01:45:29;4.03;;;3.72;;
12776;SDS011;6452;41.572;23.732;2023-04-23T01:47:56;4.90;;;3.58;;
12776;SDS011;6452;41.572;23.732;2023-04-23T01:50:22;4.63;;;3.50;;
12776;SDS011;6452;41.572;23.732;2023-04-23T01:52:50;4.70;;;3.60;;
12776;SDS011;6452;41.572;23.732;2023-04-23T01:55:16;4.45;;;3.70;;
12776;SDS011;6452;41.572;23.732;2023-04-23T01:57:45;3.65;;;3.35;;
12776;SDS011;6452;41.572;23.732;2023-04-23T02:00:12;6.95;;;3.65;;
12776;SDS011;6452;41.572;23.732;2023-04-23T02:02:39;3.70;;;3.40;;
12776;SDS011;6452;41.572;23.732;2023-04-23T02:05:09;4.38;;;3.97;;
12776;SDS011;6452;41.572;23.732;2023-04-23T02:07:36;4.35;;;3.67;;
12776;SDS011;6452;41.572;23.732;2023-04-23T02:10:02;4.22;;;3.85;;
12776;SDS011;6452;41.572;23.732;2023-04-23T02:12:28;3.72;;;3.40;;
12776;SDS011;6452;41.572;23.732;2023-04-23T02:14:55;5.28;;;3.85;;
12776;SDS011;6452;41.572;23.732;2023-04-23T02:17:20;3.75;;;3.45;;
12776;SDS011;6452;41.572;23.732;2023-04-23T02:19:50;3.90;;;3.50;;
12776;SDS011;6452;41.572;23.732;2023-04-23T02:22:16;4.20;;;3.47;;
12776;SDS011;6452;41.572;23.732;2023-04-23T02:24:42;3.22;;;3.03;;
12776;SDS011;6452;41.572;23.732;2023-04-23T02:27:09;2.72;;;2.63;;
12776;SDS011;6452;41.572;23.732;2023-04-23T02:29:35;2.55;;;2.35;;
12776;SDS011;6452;41.572;23.732;2023-04-23T02:32:02;2.22;;;2.13;;
12776;SDS011;6452;41.572;23.732;2023-04-23T02:34:28;2.67;;;2.47;;
12776;SDS011;6452;41.572;23.732;2023-04-23T02:36:53;2.88;;;2.67;;
12776;SDS011;6452;41.572;23.732;2023-04-23T02:39:19;2.42;;;2.22;;
12776;SDS011;6452;41.572;23.732;2023-04-23T02:41:49;2.78;;;2.58;;
12776;SDS011;6452;41.572;23.732;2023-04-23T02:44:15;3.53;;;3.33;;
12776;SDS011;6452;41.572;23.732;2023-04-23T02:46:41;3.05;;;2.58;;
12776;SDS011;6452;41.572;23.732;2023-04-23T02:49:07;2.63;;;2.50;;
12776;SDS011;6452;41.572;23.732;2023-04-23T02:51:34;3.72;;;2.80;;
12776;SDS011;6452;41.572;23.732;2023-04-23T02:54:00;2.28;;;2.17;;
12776;SDS011;6452;41.572;23.732;2023-04-23T02:56:28;3.28;;;2.30;;
12776;SDS011;6452;41.572;23.732;2023-04-23T02:58:54;3.20;;;2.95;;
12776;SDS011;6452;41.572;23.732;2023-04-23T03:01:20;2.75;;;2.55;;
12776;SDS011;6452;41.572;23.732;2023-04-23T03:03:46;3.30;;;3.00;;
12776;SDS011;6452;41.572;23.732;2023-04-23T03:06:12;2.90;;;2.70;;
12776;SDS011;6452;41.572;23.732;2023-04-23T03:08:37;3.38;;;3.08;;
12776;SDS011;6452;41.572;23.732;2023-04-23T03:11:03;3.20;;;3.00;;
12776;SDS011;6452;41.572;23.732;2023-04-23T03:13:29;3.55;;;3.25;;
12776;SDS011;6452;41.572;23.732;2023-04-23T03:15:56;3.20;;;2.85;;
12776;SDS011;6452;41.572;23.732;2023-04-23T03:18:22;3.40;;;3.20;;
12776;SDS011;6452;41.572;23.732;2023-04-23T03:20:47;2.97;;;2.78;;
12776;SDS011;6452;41.572;23.732;2023-04-23T03:23:17;3.13;;;2.83;;
12776;SDS011;6452;41.572;23.732;2023-04-23T03:25:44;2.85;;;2.65;;
12776;SDS011;6452;41.572;23.732;2023-04-23T03:28:10;2.90;;;2.70;;
12776;SDS011;6452;41.572;23.732;2023-04-23T03:30:36;2.78;;;2.58;;
12776;SDS011;6452;41.572;23.732;2023-04-23T03:33:02;3.17;;;2.97;;
12776;SDS011;6452;41.572;23.732;2023-04-23T03:35:29;2.60;;;2.40;;
12776;SDS011;6452;41.572;23.732;2023-04-23T03:37:55;2.67;;;2.55;;
12776;SDS011;6452;41.572;23.732;2023-04-23T03:40:20;2.60;;;2.40;;
12776;SDS011;6452;41.572;23.732;2023-04-23T03:42:46;3.63;;;3.33;;
12776;SDS011;6452;41.572;23.732;2023-04-23T03:45:16;3.42;;;2.75;;
12776;SDS011;6452;41.572;23.732;2023-04-23T03:47:42;4.15;;;3.47;;
12776;SDS011;6452;41.572;23.732;2023-04-23T03:50:08;5.13;;;4.53;;
12776;SDS011;6452;41.572;23.732;2023-04-23T03:52:34;5.05;;;3.65;;
12776;SDS011;6452;41.572;23.732;2023-04-23T03:55:00;3.78;;;3.47;;
12776;SDS011;6452;41.572;23.732;2023-04-23T03:57:26;5.32;;;4.50;;
12776;SDS011;6452;41.572;23.732;2023-04-23T03:59:52;5.15;;;4.53;;
12776;SDS011;6452;41.572;23.732;2023-04-23T04:02:18;3.33;;;3.10;;
12776;SDS011;6452;41.572;23.732;2023-04-23T04:04:44;3.60;;;3.30;;
12776;SDS011;6452;41.572;23.732;2023-04-23T04:07:13;3.95;;;3.65;;
12776;SDS011;6452;41.572;23.732;2023-04-23T04:09:39;3.03;;;2.80;;
12776;SDS011;6452;41.572;23.732;2023-04-23T04:12:05;3.05;;;2.85;;
12776;SDS011;6452;41.572;23.732;2023-04-23T04:14:31;3.15;;;2.85;;
12776;SDS011;6452;41.572;23.732;2023-04-23T04:16:57;6.57;;;3.67;;
12776;SDS011;6452;41.572;23.732;2023-04-23T04:19:23;5.38;;;4.30;;
12776;SDS011;6452;41.572;23.732;2023-04-23T04:21:50;3.47;;;3.15;;
12776;SDS011;6452;41.572;23.732;2023-04-23T04:24:16;4.97;;;4.28;;
12776;SDS011;6452;41.572;23.732;2023-04-23T04:26:43;5.63;;;4.22;;
12776;SDS011;6452;41.572;23.732;2023-04-23T04:29:09;7.18;;;4.90;;
12776;SDS011;6452;41.572;23.732;2023-04-23T04:31:35;9.27;;;6.35;;
12776;SDS011;6452;41.572;23.732;2023-04-23T04:34:02;7.15;;;5.20;;
12776;SDS011;6452;41.572;23.732;2023-04-23T04:36:27;5.50;;;5.00;;
12776;SDS011;6452;41.572;23.732;2023-04-23T04:38:54;6.43;;;4.82;;
12776;SDS011;6452;41.572;23.732;2023-04-23T04:41:23;7.05;;;5.10;;
12776;SDS011;6452;41.572;23.732;2023-04-23T04:43:50;4.00;;;3.70;;
12776;SDS011;6452;41.572;23.732;2023-04-23T04:46:16;4.07;;;3.78;;
12776;SDS011;6452;41.572;23.732;2023-04-23T04:48:45;4.60;;;4.20;;
12776;SDS011;6452;41.572;23.732;2023-04-23T04:51:11;4.57;;;4.18;;
12776;SDS011;6452;41.572;23.732;2023-04-23T04:53:37;4.25;;;3.90;;
12776;SDS011;6452;41.572;23.732;2023-04-23T04:56:04;4.43;;;4.05;;
12776;SDS011;6452;41.572;23.732;2023-04-23T04:58:30;3.83;;;3.53;;
12776;SDS011;6452;41.572;23.732;2023-04-23T05:00:57;6.38;;;5.20;;
12776;SDS011;6452;41.572;23.732;2023-04-23T05:03:24;10.38;;;5.78;;
12776;SDS011;6452;41.572;23.732;2023-04-23T05:05:50;7.82;;;5.47;;
12776;SDS011;6452;41.572;23.732;2023-04-23T05:08:17;9.23;;;4.97;;
12776;SDS011;6452;41.572;23.732;2023-04-23T05:10:43;11.60;;;5.40;;
12776;SDS011;6452;41.572;23.732;2023-04-23T05:13:09;7.80;;;5.47;;
12776;SDS011;6452;41.572;23.732;2023-04-23T05:15:35;7.75;;;4.88;;
12776;SDS011;6452;41.572;23.732;2023-04-23T05:18:02;7.65;;;5.72;;
12776;SDS011;6452;41.572;23.732;2023-04-23T05:20:28;9.52;;;4.82;;
12776;SDS011;6452;41.572;23.732;2023-04-23T05:22:55;5.90;;;4.80;;
12776;SDS011;6452;41.572;23.732;2023-04-23T05:25:24;5.03;;;4.53;;
12776;SDS011;6452;41.572;23.732;2023-04-23T05:27:50;5.82;;;5.00;;
12776;SDS011;6452;41.572;23.732;2023-04-23T05:30:16;4.57;;;4.18;;
12776;SDS011;6452;41.572;23.732;2023-04-23T05:32:41;5.15;;;4.55;;
12776;SDS011;6452;41.572;23.732;2023-04-23T05:35:08;7.25;;;4.97;;
12776;SDS011;6452;41.572;23.732;2023-04-23T05:37:34;6.25;;;5.05;;
12776;SDS011;6452;41.572;23.732;2023-04-23T05:40:00;4.40;;;4.05;;
12776;SDS011;6452;41.572;23.732;2023-04-23T05:42:27;6.13;;;4.47;;
12776;SDS011;6452;41.572;23.732;2023-04-23T05:44:53;3.28;;;3.08;;
12776;SDS011;6452;41.572;23.732;2023-04-23T05:47:18;3.42;;;3.13;;
12776;SDS011;6452;41.572;23.732;2023-04-23T05:49:45;3.08;;;2.88;;
12776;SDS011;6452;41.572;23.732;2023-04-23T05:52:15;3.10;;;2.90;;
12776;SDS011;6452;41.572;23.732;2023-04-23T05:54:42;3.80;;;3.53;;
12776;SDS011;6452;41.572;23.732;2023-04-23T05:57:07;3.65;;;3.30;;
12776;SDS011;6452;41.572;23.732;2023-04-23T05:59:34;4.45;;;3.83;;
12776;SDS011;6452;41.572;23.732;2023-04-23T06:02:00;3.17;;;2.95;;
12776;SDS011;6452;41.572;23.732;2023-04-23T06:04:26;3.60;;;3.30;;
12776;SDS011;6452;41.572;23.732;2023-04-23T06:06:52;3.25;;;3.05;;
12776;SDS011;6452;41.572;23.732;2023-04-23T06:09:19;3.75;;;3.00;;
12776;SDS011;6452;41.572;23.732;2023-04-23T06:11:45;4.18;;;3.63;;
12776;SDS011;6452;41.572;23.732;2023-04-23T06:14:11;3.45;;;3.15;;
12776;SDS011;6452;41.572;23.732;2023-04-23T06:16:38;4.68;;;4.07;;
12776;SDS011;6452;41.572;23.732;2023-04-23T06:19:04;3.85;;;3.45;;
12776;SDS011;6452;41.572;23.732;2023-04-23T06:21:34;3.05;;;2.85;;
12776;SDS011;6452;41.572;23.732;2023-04-23T06:24:00;6.82;;;3.50;;
12776;SDS011;6452;41.572;23.732;2023-04-23T06:26:26;3.60;;;3.30;;
12776;SDS011;6452;41.572;23.732;2023-04-23T06:28:52;4.75;;;3.45;;
12776;SDS011;6452;41.572;23.732;2023-04-23T06:31:18;5.43;;;3.28;;
12776;SDS011;6452;41.572;23.732;2023-04-23T06:33:44;3.53;;;3.25;;
12776;SDS011;6452;41.572;23.732;2023-04-23T06:36:10;3.70;;;3.40;;
12776;SDS011;6452;41.572;23.732;2023-04-23T06:38:36;3.47;;;3.22;;
12776;SDS011;6452;41.572;23.732;2023-04-23T06:41:03;4.03;;;3.72;;
12776;SDS011;6452;41.572;23.732;2023-04-23T06:43:29;4.78;;;4.20;;
12776;SDS011;6452;41.572;23.732;2023-04-23T06:45:55;3.35;;;3.15;;
12776;SDS011;6452;41.572;23.732;2023-04-23T06:48:21;3.63;;;3.35;;
12776;SDS011;6452;41.572;23.732;2023-04-23T06:50:48;3.88;;;3.58;;
12776;SDS011;6452;41.572;23.732;2023-04-23T06:53:14;4.03;;;3.72;;
12776;SDS011;6452;41.572;23.732;2023-04-23T06:55:40;3.60;;;3.40;;
12776;SDS011;6452;41.572;23.732;2023-04-23T06:58:06;4.45;;;4.15;;
12776;SDS011;6452;41.572;23.732;2023-04-23T07:00:33;4.00;;;3.70;;
12776;SDS011;6452;41.572;23.732;2023-04-23T07:02:59;3.67;;;3.47;;
12776;SDS011;6452;41.572;23.732;2023-04-23T07:05:25;3.80;;;3.45;;
12776;SDS011;6452;41.572;23.732;2023-04-23T07:07:51;4.10;;;3.80;;
12776;SDS011;6452;41.572;23.732;2023-04-23T07:10:17;4.00;;;3.70;;
12776;SDS011;6452;41.572;23.732;2023-04-23T07:12:43;3.90;;;3.65;;
12776;SDS011;6452;41.572;23.732;2023-04-23T07:15:10;4.75;;;4.30;;
12776;SDS011;6452;41.572;23.732;2023-04-23T07:17:36;4.40;;;4.07;;
12776;SDS011;6452;41.572;23.732;2023-04-23T07:20:03;4.03;;;3.72;;
12776;SDS011;6452;41.572;23.732;2023-04-23T07:22:31;3.63;;;3.42;;
12776;SDS011;6452;41.572;23.732;2023-04-23T07:24:57;3.97;;;3.67;;
12776;SDS011;6452;41.572;23.732;2023-04-23T07:27:23;3.88;;;3.58;;
12776;SDS011;6452;41.572;23.732;2023-04-23T07:29:49;3.83;;;3.55;;
12776;SDS011;6452;41.572;23.732;2023-04-23T07:32:15;4.05;;;3.75;;
12776;SDS011;6452;41.572;23.732;2023-04-23T07:34:41;3.90;;;3.60;;
12776;SDS011;6452;41.572;23.732;2023-04-23T07:37:07;4.45;;;4.10;;
12776;SDS011;6452;41.572;23.732;2023-04-23T07:39:34;4.32;;;4.03;;
12776;SDS011;6452;41.572;23.732;2023-04-23T07:42:00;3.28;;;3.08;;
12776;SDS011;6452;41.572;23.732;2023-04-23T07:44:29;3.53;;;3.33;;
12776;SDS011;6452;41.572;23.732;2023-04-23T07:46:59;2.97;;;2.85;;
12776;SDS011;6452;41.572;23.732;2023-04-23T07:49:25;3.15;;;2.95;;
12776;SDS011;6452;41.572;23.732;2023-04-23T07:51:56;3.33;;;3.13;;
12776;SDS011;6452;41.572;23.732;2023-04-23T07:54:22;4.38;;;3.42;;
12776;SDS011;6452;41.572;23.732;2023-04-23T07:56:48;3.85;;;3.55;;
12776;SDS011;6452;41.572;23.732;2023-04-23T07:59:14;2.92;;;2.72;;
12776;SDS011;6452;41.572;23.732;2023-04-23T08:01:41;3.92;;;3.65;;
12776;SDS011;6452;41.572;23.732;2023-04-23T08:04:07;3.13;;;2.97;;
12776;SDS011;6452;41.572;23.732;2023-04-23T08:06:33;3.40;;;3.20;;
12776;SDS011;6452;41.572;23.732;2023-04-23T08:09:00;3.10;;;3.00;;
12776;SDS011;6452;41.572;23.732;2023-04-23T08:11:33;3.40;;;3.10;;
12776;SDS011;6452;41.572;23.732;2023-04-23T08:13:59;3.33;;;3.03;;
12776;SDS011;6452;41.572;23.732;2023-04-23T08:16:26;3.10;;;2.90;;
12776;SDS011;6452;41.572;23.732;2023-04-23T08:18:52;3.03;;;2.92;;
12776;SDS011;6452;41.572;23.732;2023-04-23T08:21:19;2.85;;;2.75;;
12776;SDS011;6452;41.572;23.732;2023-04-23T08:23:45;3.58;;;3.35;;
12776;SDS011;6452;41.572;23.732;2023-04-23T08:26:15;3.25;;;2.95;;
12776;SDS011;6452;41.572;23.732;2023-04-23T08:28:41;4.30;;;2.58;;
12776;SDS011;6452;41.572;23.732;2023-04-23T08:31:07;3.15;;;2.88;;
12776;SDS011;6452;41.572;23.732;2023-04-23T08:33:37;3.63;;;3.33;;
12776;SDS011;6452;41.572;23.732;2023-04-23T08:36:03;2.90;;;2.70;;
12776;SDS011;6452;41.572;23.732;2023-04-23T08:38:28;2.95;;;2.40;;
12776;SDS011;6452;41.572;23.732;2023-04-23T08:40:55;2.80;;;2.70;;
12776;SDS011;6452;41.572;23.732;2023-04-23T08:43:24;2.75;;;2.65;;
12776;SDS011;6452;41.572;23.732;2023-04-23T08:45:52;2.90;;;2.80;;
12776;SDS011;6452;41.572;23.732;2023-04-23T08:48:18;2.35;;;2.22;;
12776;SDS011;6452;41.572;23.732;2023-04-23T08:50:45;2.40;;;2.30;;
12776;SDS011;6452;41.572;23.732;2023-04-23T08:53:14;2.70;;;2.60;;
12776;SDS011;6452;41.572;23.732;2023-04-23T08:55:42;2.25;;;2.22;;
12776;SDS011;6452;41.572;23.732;2023-04-23T08:58:08;3.05;;;2.85;;
12776;SDS011;6452;41.572;23.732;2023-04-23T09:00:34;3.25;;;2.95;;
12776;SDS011;6452;41.572;23.732;2023-04-23T09:03:01;2.80;;;2.70;;
12776;SDS011;6452;41.572;23.732;2023-04-23T09:05:27;2.75;;;2.60;;
12776;SDS011;6452;41.572;23.732;2023-04-23T09:07:53;2.10;;;2.00;;
12776;SDS011;6452;41.572;23.732;2023-04-23T09:10:20;2.13;;;1.90;;
12776;SDS011;6452;41.572;23.732;2023-04-23T09:12:46;2.55;;;2.45;;
12776;SDS011;6452;41.572;23.732;2023-04-23T09:15:12;2.78;;;2.58;;
12776;SDS011;6452;41.572;23.732;2023-04-23T09:17:39;2.33;;;2.22;;
12776;SDS011;6452;41.572;23.732;2023-04-23T09:20:05;2.42;;;2.33;;
12776;SDS011;6452;41.572;23.732;2023-04-23T09:25:12;2.30;;;2.20;;
12776;SDS011;6452;41.572;23.732;2023-04-23T09:27:39;2.45;;;2.30;;
12776;SDS011;6452;41.572;23.732;2023-04-23T09:30:05;2.45;;;2.35;;
12776;SDS011;6452;41.572;23.732;2023-04-23T09:32:34;2.38;;;2.28;;
12776;SDS011;6452;41.572;23.732;2023-04-23T09:35:04;2.28;;;2.17;;
12776;SDS011;6452;41.572;23.732;2023-04-23T09:37:30;2.45;;;2.35;;
12776;SDS011;6452;41.572;23.732;2023-04-23T09:39:57;1.98;;;1.90;;
12776;SDS011;6452;41.572;23.732;2023-04-23T09:42:23;2.10;;;2.00;;
12776;SDS011;6452;41.572;23.732;2023-04-23T09:44:54;2.10;;;2.00;;
12776;SDS011;6452;41.572;23.732;2023-04-23T09:47:20;1.70;;;1.70;;
12776;SDS011;6452;41.572;23.732;2023-04-23T09:49:47;2.05;;;1.95;;
12776;SDS011;6452;41.572;23.732;2023-04-23T09:52:13;1.63;;;1.63;;
12776;SDS011;6452;41.572;23.732;2023-04-23T09:54:38;2.30;;;2.20;;
12776;SDS011;6452;41.572;23.732;2023-04-23T09:57:05;2.10;;;2.00;;
12776;SDS011;6452;41.572;23.732;2023-04-23T09:59:33;2.03;;;1.90;;
12776;SDS011;6452;41.572;23.732;2023-04-23T10:02:04;1.80;;;1.80;;
12776;SDS011;6452;41.572;23.732;2023-04-23T10:04:30;2.08;;;2.08;;
12776;SDS011;6452;41.572;23.732;2023-04-23T10:06:57;2.40;;;2.30;;
12776;SDS011;6452;41.572;23.732;2023-04-23T10:09:23;1.83;;;1.80;;
12776;SDS011;6452;41.572;23.732;2023-04-23T10:11:51;2.13;;;2.03;;
12776;SDS011;6452;41.572;23.732;2023-04-23T10:14:18;2.00;;;1.90;;
12776;SDS011;6452;41.572;23.732;2023-04-23T10:16:45;1.88;;;1.88;;
12776;SDS011;6452;41.572;23.732;2023-04-23T10:19:13;2.10;;;2.00;;
12776;SDS011;6452;41.572;23.732;2023-04-23T10:21:40;1.90;;;1.83;;
12776;SDS011;6452;41.572;23.732;2023-04-23T10:24:06;1.70;;;1.70;;
12776;SDS011;6452;41.572;23.732;2023-04-23T10:26:36;3.35;;;1.77;;
12776;SDS011;6452;41.572;23.732;2023-04-23T10:29:04;1.95;;;1.85;;
12776;SDS011;6452;41.572;23.732;2023-04-23T10:31:30;2.10;;;2.00;;
12776;SDS011;6452;41.572;23.732;2023-04-23T10:33:57;1.65;;;1.65;;
12776;SDS011;6452;41.572;23.732;2023-04-23T10:36:23;2.20;;;2.10;;
12776;SDS011;6452;41.572;23.732;2023-04-23T10:39:09;1.80;;;1.70;;
12776;SDS011;6452;41.572;23.732;2023-04-23T10:41:36;2.40;;;2.20;;
12776;SDS011;6452;41.572;23.732;2023-04-23T10:44:03;2.08;;;1.98;;
12776;SDS011;6452;41.572;23.732;2023-04-23T10:46:31;1.88;;;1.88;;
12776;SDS011;6452;41.572;23.732;2023-04-23T10:49:04;1.80;;;1.80;;
12776;SDS011;6452;41.572;23.732;2023-04-23T10:51:31;1.77;;;1.77;;
12776;SDS011;6452;41.572;23.732;2023-04-23T10:53:57;1.88;;;1.80;;
12776;SDS011;6452;41.572;23.732;2023-04-23T10:56:24;1.70;;;1.60;;
12776;SDS011;6452;41.572;23.732;2023-04-23T10:58:52;1.75;;;1.75;;
12776;SDS011;6452;41.572;23.732;2023-04-23T11:01:18;1.75;;;1.75;;
12776;SDS011;6452;41.572;23.732;2023-04-23T11:03:46;1.60;;;1.60;;
12776;SDS011;6452;41.572;23.732;2023-04-23T11:06:13;2.10;;;2.00;;
12776;SDS011;6452;41.572;23.732;2023-04-23T11:08:51;2.15;;;2.05;;
12776;SDS011;6452;41.572;23.732;2023-04-23T11:11:18;2.08;;;1.98;;
12776;SDS011;6452;41.572;23.732;2023-04-23T11:13:50;1.95;;;1.88;;
12776;SDS011;6452;41.572;23.732;2023-04-23T11:16:21;1.90;;;1.80;;
12776;SDS011;6452;41.572;23.732;2023-04-23T11:19:07;1.50;;;1.50;;
12776;SDS011;6452;41.572;23.732;2023-04-23T11:24:23;1.90;;;1.90;;
12776;SDS011;6452;41.572;23.732;2023-04-23T11:26:53;2.17;;;2.08;;
12776;SDS011;6452;41.572;23.732;2023-04-23T11:29:38;1.85;;;1.85;;
12776;SDS011;6452;41.572;23.732;2023-04-23T11:32:05;1.85;;;1.77;;
12776;SDS011;6452;41.572;23.732;2023-04-23T11:34:38;1.63;;;1.63;;
12776;SDS011;6452;41.572;23.732;2023-04-23T11:37:04;1.40;;;1.30;;
12776;SDS011;6452;41.572;23.732;2023-04-23T11:39:31;1.52;;;1.52;;
12776;SDS011;6452;41.572;23.732;2023-04-23T11:41:57;1.60;;;1.60;;
12776;SDS011;6452;41.572;23.732;2023-04-23T11:44:27;1.80;;;1.80;;
12776;SDS011;6452;41.572;23.732;2023-04-23T11:46:53;1.45;;;1.45;;
12776;SDS011;6452;41.572;23.732;2023-04-23T11:49:19;1.77;;;1.77;;
12776;SDS011;6452;41.572;23.732;2023-04-23T11:51:46;1.70;;;1.70;;
12776;SDS011;6452;41.572;23.732;2023-04-23T11:54:12;1.70;;;1.70;;
12776;SDS011;6452;41.572;23.732;2023-04-23T11:56:39;2.33;;;2.22;;
12776;SDS011;6452;41.572;23.732;2023-04-23T11:59:05;1.75;;;1.75;;
12776;SDS011;6452;41.572;23.732;2023-04-23T12:01:38;1.70;;;1.70;;
12776;SDS011;6452;41.572;23.732;2023-04-23T12:06:37;1.83;;;1.73;;
12776;SDS011;6452;41.572;23.732;2023-04-23T12:09:05;1.67;;;1.60;;
12776;SDS011;6452;41.572;23.732;2023-04-23T12:11:30;1.95;;;1.92;;
12776;SDS011;6452;41.572;23.732;2023-04-23T12:13:56;1.60;;;1.60;;
12776;SDS011;6452;41.572;23.732;2023-04-23T12:16:41;1.92;;;1.80;;
12776;SDS011;6452;41.572;23.732;2023-04-23T12:19:14;1.40;;;1.40;;
12776;SDS011;6452;41.572;23.732;2023-04-23T12:21:56;2.25;;;2.15;;
12776;SDS011;6452;41.572;23.732;2023-04-23T12:24:25;1.80;;;1.80;;
12776;SDS011;6452;41.572;23.732;2023-04-23T12:26:52;1.67;;;1.67;;
12776;SDS011;6452;41.572;23.732;2023-04-23T12:29:19;1.98;;;1.88;;
12776;SDS011;6452;41.572;23.732;2023-04-23T12:31:45;1.80;;;1.80;;
12776;SDS011;6452;41.572;23.732;2023-04-23T12:34:11;1.67;;;1.58;;
12776;SDS011;6452;41.572;23.732;2023-04-23T12:36:42;1.30;;;1.30;;
12776;SDS011;6452;41.572;23.732;2023-04-23T12:41:50;1.77;;;1.77;;
12776;SDS011;6452;41.572;23.732;2023-04-23T12:44:17;1.40;;;1.40;;
12776;SDS011;6452;41.572;23.732;2023-04-23T12:46:43;1.75;;;1.65;;
12776;SDS011;6452;41.572;23.732;2023-04-23T12:49:09;2.33;;;1.58;;
12776;SDS011;6452;41.572;23.732;2023-04-23T12:51:35;1.45;;;1.45;;
12776;SDS011;6452;41.572;23.732;2023-04-23T12:54:02;1.70;;;1.60;;
12776;SDS011;6452;41.572;23.732;2023-04-23T12:56:28;1.80;;;1.73;;
12776;SDS011;6452;41.572;23.732;2023-04-23T12:58:54;1.67;;;1.67;;
12776;SDS011;6452;41.572;23.732;2023-04-23T13:01:19;1.50;;;1.50;;
12776;SDS011;6452;41.572;23.732;2023-04-23T13:03:46;1.65;;;1.65;;
12776;SDS011;6452;41.572;23.732;2023-04-23T13:06:12;2.20;;;2.00;;
12776;SDS011;6452;41.572;23.732;2023-04-23T13:08:39;1.60;;;1.60;;
12776;SDS011;6452;41.572;23.732;2023-04-23T13:11:05;1.65;;;1.65;;
12776;SDS011;6452;41.572;23.732;2023-04-23T13:13:31;1.80;;;1.80;;
12776;SDS011;6452;41.572;23.732;2023-04-23T13:15:57;2.13;;;2.03;;
12776;SDS011;6452;41.572;23.732;2023-04-23T13:18:23;3.17;;;1.92;;
12776;SDS011;6452;41.572;23.732;2023-04-23T13:20:50;3.42;;;3.22;;
12776;SDS011;6452;41.572;23.732;2023-04-23T13:23:16;1.95;;;1.90;;
12776;SDS011;6452;41.572;23.732;2023-04-23T13:25:42;2.20;;;2.10;;
12776;SDS011;6452;41.572;23.732;2023-04-23T13:28:08;2.17;;;2.08;;
12776;SDS011;6452;41.572;23.732;2023-04-23T13:30:35;1.92;;;1.83;;
12776;SDS011;6452;41.572;23.732;2023-04-23T13:33:01;1.98;;;1.88;;
12776;SDS011;6452;41.572;23.732;2023-04-23T13:35:27;2.53;;;2.30;;
12776;SDS011;6452;41.572;23.732;2023-04-23T13:37:53;2.60;;;2.40;;
12776;SDS011;6452;41.572;23.732;2023-04-23T13:40:20;2.22;;;2.13;;
12776;SDS011;6452;41.572;23.732;2023-04-23T13:42:46;2.72;;;2.30;;
12776;SDS011;6452;41.572;23.732;2023-04-23T13:45:14;2.45;;;2.35;;
12776;SDS011;6452;41.572;23.732;2023-04-23T13:47:41;2.80;;;2.05;;
12776;SDS011;6452;41.572;23.732;2023-04-23T13:50:07;2.72;;;2.53;;
12776;SDS011;6452;41.572;23.732;2023-04-23T13:52:34;2.58;;;2.45;;
12776;SDS011;6452;41.572;23.732;2023-04-23T13:55:02;2.33;;;2.20;;
12776;SDS011;6452;41.572;23.732;2023-04-23T13:57:28;2.50;;;2.28;;
12776;SDS011;6452;41.572;23.732;2023-04-23T13:59:54;2.13;;;2.03;;
12776;SDS011;6452;41.572;23.732;2023-04-23T14:02:21;3.08;;;2.22;;
12776;SDS011;6452;41.572;23.732;2023-04-23T14:04:48;1.92;;;1.83;;
12776;SDS011;6452;41.572;23.732;2023-04-23T14:07:14;2.05;;;1.98;;
12776;SDS011;6452;41.572;23.732;2023-04-23T14:09:40;2.40;;;2.30;;
12776;SDS011;6452;41.572;23.732;2023-04-23T14:12:06;1.92;;;1.83;;
12776;SDS011;6452;41.572;23.732;2023-04-23T14:14:32;2.05;;;1.95;;
12776;SDS011;6452;41.572;23.732;2023-04-23T14:16:58;2.03;;;1.92;;
12776;SDS011;6452;41.572;23.732;2023-04-23T14:19:24;1.73;;;1.73;;
12776;SDS011;6452;41.572;23.732;2023-04-23T14:21:50;2.08;;;1.98;;
12776;SDS011;6452;41.572;23.732;2023-04-23T14:24:17;2.22;;;2.13;;
12776;SDS011;6452;41.572;23.732;2023-04-23T14:26:46;2.10;;;2.00;;
12776;SDS011;6452;41.572;23.732;2023-04-23T14:29:23;2.50;;;2.40;;
12776;SDS011;6452;41.572;23.732;2023-04-23T14:31:50;1.73;;;1.63;;
12776;SDS011;6452;41.572;23.732;2023-04-23T14:34:16;2.15;;;2.00;;
12776;SDS011;6452;41.572;23.732;2023-04-23T14:36:42;2.00;;;1.90;;
12776;SDS011;6452;41.572;23.732;2023-04-23T14:39:09;2.53;;;2.30;;
12776;SDS011;6452;41.572;23.732;2023-04-23T14:41:36;1.90;;;1.90;;
12776;SDS011;6452;41.572;23.732;2023-04-23T14:44:02;2.53;;;2.30;;
12776;SDS011;6452;41.572;23.732;2023-04-23T14:46:28;2.10;;;2.00;;
12776;SDS011;6452;41.572;23.732;2023-04-23T14:48:54;1.92;;;1.90;;
12776;SDS011;6452;41.572;23.732;2023-04-23T14:51:20;2.03;;;1.92;;
12776;SDS011;6452;41.572;23.732;2023-04-23T14:53:46;1.98;;;1.88;;
12776;SDS011;6452;41.572;23.732;2023-04-23T14:56:12;1.90;;;1.90;;